sensor_id;sensor_type;location;lat;lon;timestamp;P1;durP1;ratioP1;P2;durP2;ratioP2
69835;SDS011;57132;51.972;4.450;2022-08-19T00:01:34;734.95;;;686.75;;
69835;SDS011;57132;51.972;4.450;2022-08-19T00:04:02;781.90;;;732.28;;
69835;SDS011;57132;51.972;4.450;2022-08-19T00:06:31;789.35;;;739.00;;
69835;SDS011;57132;51.972;4.450;2022-08-19T00:08:57;815.60;;;764.05;;
69835;SDS011;57132;51.972;4.450;2022-08-19T00:11:25;861.95;;;805.20;;
69835;SDS011;57132;51.972;4.450;2022-08-19T00:13:53;855.08;;;797.42;;
69835;SDS011;57132;51.972;4.450;2022-08-19T00:16:20;920.92;;;859.08;;
69835;SDS011;57132;51.972;4.450;2022-08-19T00:18:46;955.38;;;889.67;;
69835;SDS011;57132;51.972;4.450;2022-08-19T00:21:12;959.28;;;893.85;;
69835;SDS011;57132;51.972;4.450;2022-08-19T00:23:39;956.05;;;890.50;;
69835;SDS011;57132;51.972;4.450;2022-08-19T00:26:06;966.67;;;898.53;;
69835;SDS011;57132;51.972;4.450;2022-08-19T00:28:32;944.92;;;880.45;;
69835;SDS011;57132;51.972;4.450;2022-08-19T00:31:00;949.58;;;884.40;;
69835;SDS011;57132;51.972;4.450;2022-08-19T00:33:28;954.05;;;887.53;;
69835;SDS011;57132;51.972;4.450;2022-08-19T00:35:56;949.25;;;883.53;;
69835;SDS011;57132;51.972;4.450;2022-08-19T00:38:22;796.30;;;745.05;;
69835;SDS011;57132;51.972;4.450;2022-08-19T00:40:48;822.42;;;768.20;;
69835;SDS011;57132;51.972;4.450;2022-08-19T00:43:14;821.50;;;768.15;;
69835;SDS011;57132;51.972;4.450;2022-08-19T00:45:45;860.30;;;803.75;;
69835;SDS011;57132;51.972;4.450;2022-08-19T00:48:10;895.88;;;835.17;;
69835;SDS011;57132;51.972;4.450;2022-08-19T00:50:36;934.33;;;870.58;;
69835;SDS011;57132;51.972;4.450;2022-08-19T00:53:05;915.30;;;852.35;;
69835;SDS011;57132;51.972;4.450;2022-08-19T00:55:31;930.20;;;866.63;;
69835;SDS011;57132;51.972;4.450;2022-08-19T00:57:59;957.67;;;891.10;;
69835;SDS011;57132;51.972;4.450;2022-08-19T01:00:30;935.05;;;869.75;;
69835;SDS011;57132;51.972;4.450;2022-08-19T01:02:56;894.78;;;832.10;;
69835;SDS011;57132;51.972;4.450;2022-08-19T01:05:25;910.03;;;847.17;;
69835;SDS011;57132;51.972;4.450;2022-08-19T01:07:52;885.60;;;824.03;;
69835;SDS011;57132;51.972;4.450;2022-08-19T01:10:20;935.63;;;869.42;;
69835;SDS011;57132;51.972;4.450;2022-08-19T01:12:48;942.17;;;875.85;;
69835;SDS011;57132;51.972;4.450;2022-08-19T01:15:16;915.22;;;852.13;;
69835;SDS011;57132;51.972;4.450;2022-08-19T01:17:45;919.78;;;854.22;;
69835;SDS011;57132;51.972;4.450;2022-08-19T01:20:12;891.05;;;828.67;;
69835;SDS011;57132;51.972;4.450;2022-08-19T01:22:44;909.40;;;844.47;;
69835;SDS011;57132;51.972;4.450;2022-08-19T01:25:13;913.10;;;848.08;;
69835;SDS011;57132;51.972;4.450;2022-08-19T01:27:46;897.25;;;834.22;;
69835;SDS011;57132;51.972;4.450;2022-08-19T01:30:14;864.90;;;804.35;;
69835;SDS011;57132;51.972;4.450;2022-08-19T01:32:42;858.38;;;798.72;;
69835;SDS011;57132;51.972;4.450;2022-08-19T01:35:08;865.45;;;806.13;;
69835;SDS011;57132;51.972;4.450;2022-08-19T01:37:57;855.05;;;795.83;;
69835;SDS011;57132;51.972;4.450;2022-08-19T01:40:24;839.00;;;781.15;;
69835;SDS011;57132;51.972;4.450;2022-08-19T01:42:51;848.03;;;789.42;;
69835;SDS011;57132;51.972;4.450;2022-08-19T01:45:18;822.28;;;765.50;;
69835;SDS011;57132;51.972;4.450;2022-08-19T01:47:45;848.80;;;790.00;;
69835;SDS011;57132;51.972;4.450;2022-08-19T01:50:11;819.40;;;761.35;;
69835;SDS011;57132;51.972;4.450;2022-08-19T01:52:39;846.40;;;786.70;;
69835;SDS011;57132;51.972;4.450;2022-08-19T01:55:06;869.33;;;807.83;;
69835;SDS011;57132;51.972;4.450;2022-08-19T01:57:33;832.78;;;773.75;;
69835;SDS011;57132;51.972;4.450;2022-08-19T01:59:59;870.25;;;808.50;;
69835;SDS011;57132;51.972;4.450;2022-08-19T02:02:28;866.80;;;805.28;;
69835;SDS011;57132;51.972;4.450;2022-08-19T02:04:53;873.45;;;812.30;;
69835;SDS011;57132;51.972;4.450;2022-08-19T02:07:22;871.55;;;809.47;;
69835;SDS011;57132;51.972;4.450;2022-08-19T02:09:48;861.20;;;800.40;;
69835;SDS011;57132;51.972;4.450;2022-08-19T02:12:13;868.80;;;806.83;;
69835;SDS011;57132;51.972;4.450;2022-08-19T02:14:39;835.92;;;774.95;;
69835;SDS011;57132;51.972;4.450;2022-08-19T02:17:05;828.53;;;769.03;;
69835;SDS011;57132;51.972;4.450;2022-08-19T02:19:30;882.90;;;819.17;;
69835;SDS011;57132;51.972;4.450;2022-08-19T02:21:57;865.92;;;804.30;;
69835;SDS011;57132;51.972;4.450;2022-08-19T02:24:23;814.25;;;754.22;;
69835;SDS011;57132;51.972;4.450;2022-08-19T02:26:48;852.40;;;790.05;;
69835;SDS011;57132;51.972;4.450;2022-08-19T02:29:14;857.50;;;795.75;;
69835;SDS011;57132;51.972;4.450;2022-08-19T02:31:39;850.45;;;788.05;;
69835;SDS011;57132;51.972;4.450;2022-08-19T02:34:04;816.05;;;756.78;;
69835;SDS011;57132;51.972;4.450;2022-08-19T02:36:30;813.63;;;754.25;;
69835;SDS011;57132;51.972;4.450;2022-08-19T02:38:55;851.05;;;789.83;;
69835;SDS011;57132;51.972;4.450;2022-08-19T02:41:25;848.15;;;786.83;;
69835;SDS011;57132;51.972;4.450;2022-08-19T02:43:53;831.03;;;771.28;;
69835;SDS011;57132;51.972;4.450;2022-08-19T02:46:27;838.00;;;778.08;;
69835;SDS011;57132;51.972;4.450;2022-08-19T02:48:56;837.58;;;777.20;;
69835;SDS011;57132;51.972;4.450;2022-08-19T02:51:30;836.00;;;775.63;;
69835;SDS011;57132;51.972;4.450;2022-08-19T02:54:02;828.22;;;768.28;;
69835;SDS011;57132;51.972;4.450;2022-08-19T02:56:29;840.67;;;780.22;;
69835;SDS011;57132;51.972;4.450;2022-08-19T02:58:55;804.00;;;745.47;;
69835;SDS011;57132;51.972;4.450;2022-08-19T03:01:23;811.50;;;751.45;;
69835;SDS011;57132;51.972;4.450;2022-08-19T03:03:50;855.70;;;794.30;;
69835;SDS011;57132;51.972;4.450;2022-08-19T03:06:16;847.40;;;786.28;;
69835;SDS011;57132;51.972;4.450;2022-08-19T03:08:43;854.72;;;792.88;;
69835;SDS011;57132;51.972;4.450;2022-08-19T03:11:17;803.15;;;744.40;;
69835;SDS011;57132;51.972;4.450;2022-08-19T03:13:46;847.53;;;786.42;;
69835;SDS011;57132;51.972;4.450;2022-08-19T03:16:13;845.17;;;784.50;;
69835;SDS011;57132;51.972;4.450;2022-08-19T03:18:39;852.33;;;791.60;;
69835;SDS011;57132;51.972;4.450;2022-08-19T03:21:05;839.30;;;778.08;;
69835;SDS011;57132;51.972;4.450;2022-08-19T03:23:31;775.97;;;720.97;;
69835;SDS011;57132;51.972;4.450;2022-08-19T03:25:57;808.83;;;748.72;;
69835;SDS011;57132;51.972;4.450;2022-08-19T03:28:22;709.15;;;658.17;;
69835;SDS011;57132;51.972;4.450;2022-08-19T03:30:55;787.40;;;730.53;;
69835;SDS011;57132;51.972;4.450;2022-08-19T03:33:25;775.92;;;720.42;;
69835;SDS011;57132;51.972;4.450;2022-08-19T03:38:35;743.67;;;690.03;;
69835;SDS011;57132;51.972;4.450;2022-08-19T03:41:06;774.13;;;718.15;;
69835;SDS011;57132;51.972;4.450;2022-08-19T03:43:36;753.95;;;700.97;;
69835;SDS011;57132;51.972;4.450;2022-08-19T03:46:13;763.13;;;708.05;;
69835;SDS011;57132;51.972;4.450;2022-08-19T03:48:41;735.67;;;682.42;;
69835;SDS011;57132;51.972;4.450;2022-08-19T03:51:07;700.85;;;649.72;;
69835;SDS011;57132;51.972;4.450;2022-08-19T03:53:40;679.63;;;629.58;;
69835;SDS011;57132;51.972;4.450;2022-08-19T03:56:06;754.72;;;700.05;;
69835;SDS011;57132;51.972;4.450;2022-08-19T03:58:34;723.00;;;669.95;;
69835;SDS011;57132;51.972;4.450;2022-08-19T04:00:59;720.58;;;667.17;;
69835;SDS011;57132;51.972;4.450;2022-08-19T04:03:25;726.83;;;673.25;;
69835;SDS011;57132;51.972;4.450;2022-08-19T04:05:51;815.92;;;756.00;;
69835;SDS011;57132;51.972;4.450;2022-08-19T04:08:18;829.97;;;770.47;;
69835;SDS011;57132;51.972;4.450;2022-08-19T04:10:46;873.53;;;808.63;;
69835;SDS011;57132;51.972;4.450;2022-08-19T04:13:12;963.53;;;886.47;;
69835;SDS011;57132;51.972;4.450;2022-08-19T04:15:42;1011.28;;;924.83;;
69835;SDS011;57132;51.972;4.450;2022-08-19T04:18:09;966.45;;;888.17;;
69835;SDS011;57132;51.972;4.450;2022-08-19T04:20:39;932.53;;;853.67;;
69835;SDS011;57132;51.972;4.450;2022-08-19T04:23:09;925.88;;;850.65;;
69835;SDS011;57132;51.972;4.450;2022-08-19T04:25:38;924.88;;;853.72;;
69835;SDS011;57132;51.972;4.450;2022-08-19T04:28:06;769.92;;;707.33;;
69835;SDS011;57132;51.972;4.450;2022-08-19T04:30:41;807.95;;;743.05;;
69835;SDS011;57132;51.972;4.450;2022-08-19T04:33:09;776.53;;;713.88;;
69835;SDS011;57132;51.972;4.450;2022-08-19T04:35:37;770.85;;;709.45;;
69835;SDS011;57132;51.972;4.450;2022-08-19T04:38:04;821.75;;;758.53;;
69835;SDS011;57132;51.972;4.450;2022-08-19T04:40:30;838.08;;;769.20;;
69835;SDS011;57132;51.972;4.450;2022-08-19T04:43:14;810.90;;;749.25;;
69835;SDS011;57132;51.972;4.450;2022-08-19T04:45:40;834.70;;;771.35;;
69835;SDS011;57132;51.972;4.450;2022-08-19T04:48:09;836.95;;;773.25;;
69835;SDS011;57132;51.972;4.450;2022-08-19T04:50:35;801.55;;;741.38;;
69835;SDS011;57132;51.972;4.450;2022-08-19T04:53:01;867.00;;;802.53;;
69835;SDS011;57132;51.972;4.450;2022-08-19T04:55:26;851.67;;;787.60;;
69835;SDS011;57132;51.972;4.450;2022-08-19T04:57:51;813.70;;;752.33;;
69835;SDS011;57132;51.972;4.450;2022-08-19T05:00:17;863.10;;;798.05;;
69835;SDS011;57132;51.972;4.450;2022-08-19T05:02:42;870.45;;;804.20;;
69835;SDS011;57132;51.972;4.450;2022-08-19T05:05:08;881.63;;;815.55;;
69835;SDS011;57132;51.972;4.450;2022-08-19T05:07:34;882.33;;;815.83;;
69835;SDS011;57132;51.972;4.450;2022-08-19T05:09:59;890.50;;;823.55;;
69835;SDS011;57132;51.972;4.450;2022-08-19T05:12:25;847.20;;;783.53;;
69835;SDS011;57132;51.972;4.450;2022-08-19T05:14:52;887.30;;;821.65;;
69835;SDS011;57132;51.972;4.450;2022-08-19T05:17:17;840.85;;;778.20;;
69835;SDS011;57132;51.972;4.450;2022-08-19T05:19:43;894.58;;;829.53;;
69835;SDS011;57132;51.972;4.450;2022-08-19T05:22:27;839.17;;;777.35;;
69835;SDS011;57132;51.972;4.450;2022-08-19T05:25:08;894.08;;;828.53;;
69835;SDS011;57132;51.972;4.450;2022-08-19T05:27:37;899.97;;;832.65;;
69835;SDS011;57132;51.972;4.450;2022-08-19T05:30:02;874.70;;;809.22;;
69835;SDS011;57132;51.972;4.450;2022-08-19T05:32:28;907.20;;;839.95;;
69835;SDS011;57132;51.972;4.450;2022-08-19T05:34:54;915.30;;;847.13;;
69835;SDS011;57132;51.972;4.450;2022-08-19T05:37:19;927.70;;;859.42;;
69835;SDS011;57132;51.972;4.450;2022-08-19T05:39:45;923.67;;;854.97;;
69835;SDS011;57132;51.972;4.450;2022-08-19T05:42:11;905.17;;;835.97;;
69835;SDS011;57132;51.972;4.450;2022-08-19T05:44:38;914.55;;;846.05;;
69835;SDS011;57132;51.972;4.450;2022-08-19T05:47:09;934.05;;;864.75;;
69835;SDS011;57132;51.972;4.450;2022-08-19T05:49:35;927.05;;;858.05;;
69835;SDS011;57132;51.972;4.450;2022-08-19T05:52:03;876.08;;;810.45;;
69835;SDS011;57132;51.972;4.450;2022-08-19T05:54:30;924.97;;;855.15;;
69835;SDS011;57132;51.972;4.450;2022-08-19T05:56:56;935.20;;;866.30;;
69835;SDS011;57132;51.972;4.450;2022-08-19T05:59:21;920.17;;;851.60;;
69835;SDS011;57132;51.972;4.450;2022-08-19T06:01:48;914.40;;;846.78;;
69835;SDS011;57132;51.972;4.450;2022-08-19T06:04:16;864.83;;;800.60;;
69835;SDS011;57132;51.972;4.450;2022-08-19T06:06:44;913.50;;;846.08;;
69835;SDS011;57132;51.972;4.450;2022-08-19T06:09:15;842.25;;;781.45;;
69835;SDS011;57132;51.972;4.450;2022-08-19T06:11:45;874.42;;;810.80;;
69835;SDS011;57132;51.972;4.450;2022-08-19T06:14:19;892.60;;;824.53;;
69835;SDS011;57132;51.972;4.450;2022-08-19T06:16:46;931.13;;;857.35;;
69835;SDS011;57132;51.972;4.450;2022-08-19T06:19:14;873.63;;;802.00;;
69835;SDS011;57132;51.972;4.450;2022-08-19T06:21:42;860.45;;;782.85;;
69835;SDS011;57132;51.972;4.450;2022-08-19T06:24:09;758.70;;;688.30;;
69835;SDS011;57132;51.972;4.450;2022-08-19T06:26:37;712.75;;;647.53;;
69835;SDS011;57132;51.972;4.450;2022-08-19T06:29:09;770.15;;;698.08;;
69835;SDS011;57132;51.972;4.450;2022-08-19T06:31:36;754.60;;;687.78;;
69835;SDS011;57132;51.972;4.450;2022-08-19T06:34:03;814.13;;;743.67;;
69835;SDS011;57132;51.972;4.450;2022-08-19T06:36:31;846.00;;;775.80;;
69835;SDS011;57132;51.972;4.450;2022-08-19T06:39:02;901.60;;;829.50;;
69835;SDS011;57132;51.972;4.450;2022-08-19T06:41:30;867.83;;;798.35;;
69835;SDS011;57132;51.972;4.450;2022-08-19T06:43:59;902.03;;;829.15;;
69835;SDS011;57132;51.972;4.450;2022-08-19T06:46:24;934.13;;;856.60;;
69835;SDS011;57132;51.972;4.450;2022-08-19T06:48:51;887.63;;;813.95;;
69835;SDS011;57132;51.972;4.450;2022-08-19T06:51:18;872.63;;;801.70;;
69835;SDS011;57132;51.972;4.450;2022-08-19T06:53:47;893.88;;;820.88;;
69835;SDS011;57132;51.972;4.450;2022-08-19T06:56:14;839.25;;;772.63;;
69835;SDS011;57132;51.972;4.450;2022-08-19T06:58:41;889.65;;;819.70;;
69835;SDS011;57132;51.972;4.450;2022-08-19T07:01:07;872.28;;;803.45;;
69835;SDS011;57132;51.972;4.450;2022-08-19T07:03:34;830.20;;;766.72;;
69835;SDS011;57132;51.972;4.450;2022-08-19T07:06:04;839.58;;;774.97;;
69835;SDS011;57132;51.972;4.450;2022-08-19T07:08:32;832.10;;;767.50;;
69835;SDS011;57132;51.972;4.450;2022-08-19T07:10:59;877.50;;;809.63;;
69835;SDS011;57132;51.972;4.450;2022-08-19T07:13:25;871.22;;;803.63;;
69835;SDS011;57132;51.972;4.450;2022-08-19T07:15:50;878.30;;;809.97;;
69835;SDS011;57132;51.972;4.450;2022-08-19T07:18:17;928.20;;;854.15;;
69835;SDS011;57132;51.972;4.450;2022-08-19T07:20:44;923.20;;;849.40;;
69835;SDS011;57132;51.972;4.450;2022-08-19T07:23:10;857.92;;;789.35;;
69835;SDS011;57132;51.972;4.450;2022-08-19T07:25:36;916.80;;;843.22;;
69835;SDS011;57132;51.972;4.450;2022-08-19T07:28:02;851.67;;;784.28;;
69835;SDS011;57132;51.972;4.450;2022-08-19T07:30:29;869.67;;;800.40;;
69835;SDS011;57132;51.972;4.450;2022-08-19T07:32:55;861.40;;;794.22;;
69835;SDS011;57132;51.972;4.450;2022-08-19T07:35:21;916.28;;;844.03;;
69835;SDS011;57132;51.972;4.450;2022-08-19T07:37:48;907.40;;;835.95;;
69835;SDS011;57132;51.972;4.450;2022-08-19T07:40:14;893.22;;;823.35;;
69835;SDS011;57132;51.972;4.450;2022-08-19T07:42:39;895.15;;;824.35;;
69835;SDS011;57132;51.972;4.450;2022-08-19T07:45:05;907.80;;;834.90;;
69835;SDS011;57132;51.972;4.450;2022-08-19T07:47:31;848.03;;;781.45;;
69835;SDS011;57132;51.972;4.450;2022-08-19T07:49:56;832.95;;;767.53;;
69835;SDS011;57132;51.972;4.450;2022-08-19T07:52:22;899.58;;;829.08;;
69835;SDS011;57132;51.972;4.450;2022-08-19T07:54:47;890.15;;;820.20;;
69835;SDS011;57132;51.972;4.450;2022-08-19T07:57:13;842.50;;;776.90;;
69835;SDS011;57132;51.972;4.450;2022-08-19T07:59:38;882.53;;;813.17;;
69835;SDS011;57132;51.972;4.450;2022-08-19T08:02:04;893.97;;;822.55;;
69835;SDS011;57132;51.972;4.450;2022-08-19T08:04:30;830.90;;;765.03;;
69835;SDS011;57132;51.972;4.450;2022-08-19T08:07:14;878.28;;;808.75;;
69835;SDS011;57132;51.972;4.450;2022-08-19T08:09:58;913.63;;;841.03;;
69835;SDS011;57132;51.972;4.450;2022-08-19T08:12:26;903.35;;;829.47;;
69835;SDS011;57132;51.972;4.450;2022-08-19T08:14:56;888.90;;;816.05;;
69835;SDS011;57132;51.972;4.450;2022-08-19T08:17:27;900.60;;;827.53;;
69835;SDS011;57132;51.972;4.450;2022-08-19T08:19:54;848.90;;;779.63;;
69835;SDS011;57132;51.972;4.450;2022-08-19T08:22:20;867.35;;;793.17;;
69835;SDS011;57132;51.972;4.450;2022-08-19T08:25:06;704.83;;;640.45;;
69835;SDS011;57132;51.972;4.450;2022-08-19T08:27:38;674.70;;;612.22;;
69835;SDS011;57132;51.972;4.450;2022-08-19T08:30:08;776.42;;;706.55;;
69835;SDS011;57132;51.972;4.450;2022-08-19T08:32:41;729.95;;;663.20;;
69835;SDS011;57132;51.972;4.450;2022-08-19T08:35:08;715.45;;;648.38;;
69835;SDS011;57132;51.972;4.450;2022-08-19T08:37:36;782.20;;;711.78;;
69835;SDS011;57132;51.972;4.450;2022-08-19T08:40:04;729.95;;;662.70;;
69835;SDS011;57132;51.972;4.450;2022-08-19T08:42:36;782.42;;;712.17;;
69835;SDS011;57132;51.972;4.450;2022-08-19T08:45:12;768.92;;;699.67;;
69835;SDS011;57132;51.972;4.450;2022-08-19T08:47:41;703.83;;;637.67;;
69835;SDS011;57132;51.972;4.450;2022-08-19T08:53:08;637.00;;;575.65;;
69835;SDS011;57132;51.972;4.450;2022-08-19T08:55:36;613.17;;;552.15;;
69835;SDS011;57132;51.972;4.450;2022-08-19T08:58:05;713.13;;;643.42;;
69835;SDS011;57132;51.972;4.450;2022-08-19T09:00:37;704.88;;;634.53;;
69835;SDS011;57132;51.972;4.450;2022-08-19T09:03:10;668.90;;;600.50;;
69835;SDS011;57132;51.972;4.450;2022-08-19T09:10:58;722.03;;;650.35;;
69835;SDS011;57132;51.972;4.450;2022-08-19T09:16:21;465.77;;;403.00;;
69835;SDS011;57132;51.972;4.450;2022-08-19T09:18:53;1608.50;;;836.08;;
69835;SDS011;57132;51.972;4.450;2022-08-19T09:21:23;1999.90;;;999.90;;
69835;SDS011;57132;51.972;4.450;2022-08-19T09:23:50;1999.90;;;999.90;;
69835;SDS011;57132;51.972;4.450;2022-08-19T09:26:17;1999.90;;;999.90;;
69835;SDS011;57132;51.972;4.450;2022-08-19T09:28:46;1596.45;;;821.42;;
69835;SDS011;57132;51.972;4.450;2022-08-19T09:31:14;381.35;;;291.27;;
69835;SDS011;57132;51.972;4.450;2022-08-19T09:33:40;533.22;;;427.20;;
69835;SDS011;57132;51.972;4.450;2022-08-19T09:36:09;638.67;;;546.55;;
69835;SDS011;57132;51.972;4.450;2022-08-19T09:38:36;661.35;;;583.95;;
69835;SDS011;57132;51.972;4.450;2022-08-19T09:41:05;710.58;;;633.10;;
69835;SDS011;57132;51.972;4.450;2022-08-19T09:43:32;710.30;;;632.08;;
69835;SDS011;57132;51.972;4.450;2022-08-19T09:46:04;686.60;;;611.53;;
69835;SDS011;57132;51.972;4.450;2022-08-19T09:48:31;666.22;;;583.78;;
69835;SDS011;57132;51.972;4.450;2022-08-19T09:51:30;573.88;;;480.38;;
69835;SDS011;57132;51.972;4.450;2022-08-19T09:53:51;828.42;;;491.95;;
69835;SDS011;57132;51.972;4.450;2022-08-19T09:56:19;581.00;;;487.23;;
69835;SDS011;57132;51.972;4.450;2022-08-19T09:58:46;1595.28;;;829.13;;
69835;SDS011;57132;51.972;4.450;2022-08-19T10:01:18;1999.90;;;999.90;;
69835;SDS011;57132;51.972;4.450;2022-08-19T10:03:49;1999.90;;;999.90;;
69835;SDS011;57132;51.972;4.450;2022-08-19T10:06:17;1634.10;;;852.97;;
69835;SDS011;57132;51.972;4.450;2022-08-19T10:08:43;476.45;;;366.27;;
69835;SDS011;57132;51.972;4.450;2022-08-19T10:11:09;1999.90;;;999.90;;
69835;SDS011;57132;51.972;4.450;2022-08-19T10:13:34;1999.90;;;999.90;;
69835;SDS011;57132;51.972;4.450;2022-08-19T10:16:05;1999.90;;;999.90;;
69835;SDS011;57132;51.972;4.450;2022-08-19T10:18:33;1999.90;;;999.90;;
69835;SDS011;57132;51.972;4.450;2022-08-19T10:21:07;1999.90;;;999.90;;
69835;SDS011;57132;51.972;4.450;2022-08-19T10:23:38;1999.90;;;999.90;;
69835;SDS011;57132;51.972;4.450;2022-08-19T10:26:05;1999.90;;;999.90;;
69835;SDS011;57132;51.972;4.450;2022-08-19T10:28:34;1999.90;;;999.90;;
69835;SDS011;57132;51.972;4.450;2022-08-19T10:31:04;1999.90;;;999.90;;
69835;SDS011;57132;51.972;4.450;2022-08-19T10:33:31;1999.90;;;999.90;;
69835;SDS011;57132;51.972;4.450;2022-08-19T10:36:04;1999.90;;;999.90;;
69835;SDS011;57132;51.972;4.450;2022-08-19T10:38:42;1999.90;;;999.90;;
69835;SDS011;57132;51.972;4.450;2022-08-19T10:41:20;1999.90;;;999.90;;
69835;SDS011;57132;51.972;4.450;2022-08-19T10:43:53;1999.90;;;999.90;;
69835;SDS011;57132;51.972;4.450;2022-08-19T10:46:20;1999.90;;;999.90;;
69835;SDS011;57132;51.972;4.450;2022-08-19T10:48:48;1999.90;;;999.90;;
69835;SDS011;57132;51.972;4.450;2022-08-19T10:51:14;1999.90;;;999.90;;
69835;SDS011;57132;51.972;4.450;2022-08-19T10:53:59;1999.90;;;999.90;;
69835;SDS011;57132;51.972;4.450;2022-08-19T10:56:25;1999.90;;;999.90;;
69835;SDS011;57132;51.972;4.450;2022-08-19T10:59:10;1999.90;;;999.90;;
69835;SDS011;57132;51.972;4.450;2022-08-19T11:01:37;1999.90;;;999.90;;
69835;SDS011;57132;51.972;4.450;2022-08-19T11:04:03;1999.90;;;999.90;;
69835;SDS011;57132;51.972;4.450;2022-08-19T11:06:32;1999.90;;;999.90;;
69835;SDS011;57132;51.972;4.450;2022-08-19T11:08:58;1599.72;;;818.08;;
69835;SDS011;57132;51.972;4.450;2022-08-19T11:11:25;1999.90;;;999.90;;
69835;SDS011;57132;51.972;4.450;2022-08-19T11:13:51;1999.90;;;999.90;;
69835;SDS011;57132;51.972;4.450;2022-08-19T11:16:21;1558.38;;;787.40;;
69835;SDS011;57132;51.972;4.450;2022-08-19T11:18:52;1999.90;;;999.90;;
69835;SDS011;57132;51.972;4.450;2022-08-19T11:21:24;1579.60;;;799.60;;
69835;SDS011;57132;51.972;4.450;2022-08-19T11:23:53;1641.25;;;850.88;;
69835;SDS011;57132;51.972;4.450;2022-08-19T11:26:21;1634.28;;;846.60;;
69835;SDS011;57132;51.972;4.450;2022-08-19T11:28:47;1625.20;;;833.00;;
69835;SDS011;57132;51.972;4.450;2022-08-19T11:31:15;1999.90;;;999.90;;
69835;SDS011;57132;51.972;4.450;2022-08-19T11:33:42;1999.90;;;999.90;;
69835;SDS011;57132;51.972;4.450;2022-08-19T11:36:09;1999.90;;;999.90;;
69835;SDS011;57132;51.972;4.450;2022-08-19T11:38:35;465.00;;;335.08;;
69835;SDS011;57132;51.972;4.450;2022-08-19T11:41:03;1999.90;;;999.90;;
69835;SDS011;57132;51.972;4.450;2022-08-19T11:43:32;1999.90;;;999.90;;
69835;SDS011;57132;51.972;4.450;2022-08-19T11:45:59;1999.90;;;999.90;;
69835;SDS011;57132;51.972;4.450;2022-08-19T11:48:25;1999.90;;;999.90;;
69835;SDS011;57132;51.972;4.450;2022-08-19T11:50:51;1999.90;;;999.90;;
69835;SDS011;57132;51.972;4.450;2022-08-19T11:53:20;1597.25;;;815.75;;
69835;SDS011;57132;51.972;4.450;2022-08-19T11:55:46;1627.65;;;841.17;;
69835;SDS011;57132;51.972;4.450;2022-08-19T11:58:12;1999.90;;;999.90;;
69835;SDS011;57132;51.972;4.450;2022-08-19T12:00:39;1999.90;;;999.90;;
69835;SDS011;57132;51.972;4.450;2022-08-19T12:03:05;1999.90;;;999.90;;
69835;SDS011;57132;51.972;4.450;2022-08-19T12:05:31;1999.90;;;999.90;;
69835;SDS011;57132;51.972;4.450;2022-08-19T12:07:56;1999.90;;;999.90;;
69835;SDS011;57132;51.972;4.450;2022-08-19T12:10:22;1999.90;;;999.90;;
69835;SDS011;57132;51.972;4.450;2022-08-19T12:12:47;1999.90;;;999.90;;
69835;SDS011;57132;51.972;4.450;2022-08-19T12:15:13;1999.90;;;999.90;;
69835;SDS011;57132;51.972;4.450;2022-08-19T12:17:39;1607.05;;;824.20;;
69835;SDS011;57132;51.972;4.450;2022-08-19T12:20:07;521.00;;;377.85;;
69835;SDS011;57132;51.972;4.450;2022-08-19T12:22:35;1609.75;;;828.25;;
69835;SDS011;57132;51.972;4.450;2022-08-19T12:25:06;1999.90;;;999.90;;
69835;SDS011;57132;51.972;4.450;2022-08-19T12:27:32;518.67;;;382.85;;
69835;SDS011;57132;51.972;4.450;2022-08-19T12:29:57;1590.18;;;813.03;;
69835;SDS011;57132;51.972;4.450;2022-08-19T12:32:26;1999.90;;;999.90;;
69835;SDS011;57132;51.972;4.450;2022-08-19T12:34:51;612.10;;;452.55;;
69835;SDS011;57132;51.972;4.450;2022-08-19T12:37:16;895.35;;;727.28;;
69835;SDS011;57132;51.972;4.450;2022-08-19T12:39:42;918.33;;;760.85;;
69835;SDS011;57132;51.972;4.450;2022-08-19T12:42:11;1065.65;;;908.80;;
69835;SDS011;57132;51.972;4.450;2022-08-19T12:44:38;1043.30;;;852.97;;
69835;SDS011;57132;51.972;4.450;2022-08-19T12:47:06;893.53;;;715.47;;
69835;SDS011;57132;51.972;4.450;2022-08-19T12:49:32;1637.18;;;851.42;;
69835;SDS011;57132;51.972;4.450;2022-08-19T12:52:01;1999.90;;;999.90;;
69835;SDS011;57132;51.972;4.450;2022-08-19T12:54:27;1999.90;;;999.90;;
69835;SDS011;57132;51.972;4.450;2022-08-19T12:56:54;1999.90;;;999.90;;
69835;SDS011;57132;51.972;4.450;2022-08-19T12:59:19;1999.90;;;999.90;;
69835;SDS011;57132;51.972;4.450;2022-08-19T13:01:45;1999.90;;;999.90;;
69835;SDS011;57132;51.972;4.450;2022-08-19T13:04:10;1999.90;;;999.90;;
69835;SDS011;57132;51.972;4.450;2022-08-19T13:06:36;1611.70;;;833.25;;
69835;SDS011;57132;51.972;4.450;2022-08-19T13:09:02;1999.90;;;999.90;;
69835;SDS011;57132;51.972;4.450;2022-08-19T13:11:28;1999.90;;;999.90;;
69835;SDS011;57132;51.972;4.450;2022-08-19T13:13:57;1999.90;;;999.90;;
69835;SDS011;57132;51.972;4.450;2022-08-19T13:16:23;1999.90;;;999.90;;
69835;SDS011;57132;51.972;4.450;2022-08-19T13:18:50;1999.90;;;999.90;;
69835;SDS011;57132;51.972;4.450;2022-08-19T13:21:19;1999.90;;;999.90;;
69835;SDS011;57132;51.972;4.450;2022-08-19T13:23:46;1999.90;;;999.90;;
69835;SDS011;57132;51.972;4.450;2022-08-19T13:26:12;1999.90;;;999.90;;
69835;SDS011;57132;51.972;4.450;2022-08-19T13:28:38;1999.90;;;999.90;;
69835;SDS011;57132;51.972;4.450;2022-08-19T13:31:24;1999.90;;;999.90;;
69835;SDS011;57132;51.972;4.450;2022-08-19T13:34:09;1999.90;;;999.90;;
69835;SDS011;57132;51.972;4.450;2022-08-19T13:36:35;1999.90;;;999.90;;
69835;SDS011;57132;51.972;4.450;2022-08-19T13:39:02;1999.90;;;999.90;;
69835;SDS011;57132;51.972;4.450;2022-08-19T13:41:29;1999.90;;;999.90;;
69835;SDS011;57132;51.972;4.450;2022-08-19T13:43:54;1999.90;;;999.90;;
69835;SDS011;57132;51.972;4.450;2022-08-19T13:46:20;1999.90;;;999.90;;
69835;SDS011;57132;51.972;4.450;2022-08-19T13:48:46;1999.90;;;999.90;;
69835;SDS011;57132;51.972;4.450;2022-08-19T13:51:13;1999.90;;;999.90;;
69835;SDS011;57132;51.972;4.450;2022-08-19T13:53:41;1999.90;;;999.90;;
69835;SDS011;57132;51.972;4.450;2022-08-19T13:56:09;1999.90;;;999.90;;
69835;SDS011;57132;51.972;4.450;2022-08-19T13:58:36;1999.90;;;999.90;;
69835;SDS011;57132;51.972;4.450;2022-08-19T14:01:03;1999.90;;;999.90;;
69835;SDS011;57132;51.972;4.450;2022-08-19T14:03:29;1999.90;;;999.90;;
69835;SDS011;57132;51.972;4.450;2022-08-19T14:05:55;1999.90;;;999.90;;
69835;SDS011;57132;51.972;4.450;2022-08-19T14:08:21;1614.50;;;836.97;;
69835;SDS011;57132;51.972;4.450;2022-08-19T14:10:47;1592.72;;;820.22;;
69835;SDS011;57132;51.972;4.450;2022-08-19T14:13:14;1637.53;;;855.58;;